createdAt,value
2023-04-09T00:03:59.002Z,100.00
2023-04-09T00:08:00.753Z,100.00
2023-04-09T00:12:03.402Z,100.00
2023-04-09T00:16:05.241Z,100.00
2023-04-09T00:20:07.879Z,100.00
2023-04-09T00:24:09.375Z,100.00
2023-04-09T00:28:10.996Z,100.00
2023-04-09T00:32:12.519Z,100.00
2023-04-09T00:36:14.101Z,100.00
2023-04-09T00:40:15.869Z,100.00
2023-04-09T00:44:17.433Z,100.00
2023-04-09T00:48:19.144Z,100.00
2023-04-09T00:52:21.387Z,100.00
2023-04-09T00:56:23.663Z,100.00
2023-04-09T01:00:25.484Z,100.00
2023-04-09T01:04:27.003Z,100.00
2023-04-09T01:08:33.398Z,100.00
2023-04-09T01:12:52.010Z,100.00
2023-04-09T01:17:05.622Z,100.00
2023-04-09T01:21:13.014Z,100.00
2023-04-09T01:25:50.398Z,100.00
2023-04-09T01:29:53.531Z,100.00
2023-04-09T01:33:55.574Z,100.00
2023-04-09T01:37:58.270Z,100.00
2023-04-09T01:42:00.863Z,100.00
2023-04-09T01:46:03.678Z,100.00
2023-04-09T01:50:05.893Z,100.00
2023-04-09T01:54:07.788Z,100.00
2023-04-09T01:58:09.396Z,100.00
2023-04-09T02:02:18.079Z,100.00
2023-04-09T02:06:34.619Z,100.00
2023-04-09T02:10:39.505Z,100.00
2023-04-09T02:14:41.453Z,100.00
2023-04-09T02:18:42.970Z,100.00
2023-04-09T02:22:45.663Z,100.00
2023-04-09T02:26:47.249Z,100.00
2023-04-09T02:30:48.719Z,100.00
2023-04-09T02:34:50.137Z,100.00
2023-04-09T02:38:51.784Z,100.00
2023-04-09T02:42:53.928Z,100.00
2023-04-09T02:46:56.215Z,100.00
2023-04-09T02:50:57.665Z,100.00
2023-04-09T02:54:59.082Z,100.00
2023-04-09T02:59:00.546Z,100.00
2023-04-09T03:03:02.309Z,100.00
2023-04-09T03:07:03.869Z,100.00
2023-04-09T03:11:05.380Z,100.00
2023-04-09T03:15:07.311Z,100.00
2023-04-09T03:19:08.777Z,100.00
2023-04-09T03:23:10.830Z,100.00
2023-04-09T03:27:12.256Z,100.00
2023-04-09T03:31:14.172Z,100.00
2023-04-09T03:35:15.817Z,100.00
2023-04-09T03:39:17.323Z,100.00
2023-04-09T03:43:18.768Z,100.00
2023-04-09T03:47:20.668Z,100.00
2023-04-09T03:51:22.160Z,100.00
2023-04-09T03:55:23.674Z,100.00
2023-04-09T03:59:25.259Z,100.00
2023-04-09T04:03:26.981Z,100.00
2023-04-09T04:07:28.458Z,100.00
2023-04-09T04:11:30.374Z,100.00
2023-04-09T04:15:31.895Z,100.00
2023-04-09T04:19:33.305Z,100.00
2023-04-09T04:23:34.817Z,100.00
2023-04-09T04:27:36.253Z,100.00
2023-04-09T04:31:37.776Z,100.00
2023-04-09T04:35:39.334Z,100.00
2023-04-09T04:39:40.876Z,100.00
2023-04-09T04:43:42.348Z,100.00
2023-04-09T04:47:43.824Z,100.00
2023-04-09T04:51:45.332Z,100.00
2023-04-09T04:55:46.937Z,100.00
2023-04-09T04:59:48.438Z,100.00
2023-04-09T05:03:49.986Z,100.00
2023-04-09T05:07:51.674Z,100.00
2023-04-09T05:11:53.190Z,100.00
2023-04-09T05:15:54.683Z,100.00
2023-04-09T05:19:57.779Z,100.00
2023-04-09T05:23:59.213Z,100.00
2023-04-09T05:28:00.879Z,100.00
2023-04-09T05:32:02.568Z,100.00
2023-04-09T05:36:04.789Z,100.00
2023-04-09T05:40:06.765Z,100.00
2023-04-09T05:44:08.233Z,100.00
2023-04-09T05:48:09.759Z,100.00
2023-04-09T05:52:11.267Z,100.00
2023-04-09T05:56:16.151Z,100.00
2023-04-09T06:00:18.371Z,100.00
2023-04-09T06:04:20.071Z,100.00
2023-04-09T06:08:21.617Z,100.00
2023-04-09T06:12:23.055Z,100.00
2023-04-09T06:16:24.506Z,100.00
2023-04-09T06:20:26.071Z,100.00
2023-04-09T06:24:27.490Z,100.00
2023-04-09T06:28:29.600Z,100.00
2023-04-09T06:32:33.607Z,100.00
2023-04-09T06:36:40.503Z,100.00
2023-04-09T06:40:42.528Z,100.00
2023-04-09T06:44:43.973Z,100.00
2023-04-09T06:48:46.414Z,100.00
2023-04-09T06:52:48.241Z,100.00
2023-04-09T06:56:49.730Z,100.00
2023-04-09T07:00:51.187Z,100.00
2023-04-09T07:04:52.875Z,100.00
2023-04-09T07:08:54.602Z,100.00
2023-04-09T07:12:56.507Z,100.00
2023-04-09T07:16:57.943Z,100.00
2023-04-09T07:20:59.497Z,100.00
2023-04-09T07:25:01.078Z,100.00
2023-04-09T07:29:03.771Z,100.00
2023-04-09T07:33:05.335Z,100.00
2023-04-09T07:37:06.866Z,100.00
2023-04-09T07:41:11.055Z,100.00
2023-04-09T07:45:12.627Z,100.00
2023-04-09T07:49:14.277Z,100.00
2023-04-09T07:53:16.497Z,100.00
2023-04-09T07:57:18.005Z,100.00
2023-04-09T08:01:24.635Z,100.00
2023-04-09T08:05:26.283Z,100.00
2023-04-09T08:09:27.694Z,100.00
2023-04-09T08:13:29.111Z,100.00
2023-04-09T08:17:31.232Z,100.00
2023-04-09T08:21:32.862Z,100.00
2023-04-09T08:25:34.323Z,100.00
2023-04-09T08:29:35.980Z,100.00
2023-04-09T08:33:37.870Z,100.00
2023-04-09T08:37:39.560Z,100.00
2023-04-09T08:41:46.225Z,100.00
2023-04-09T08:45:51.375Z,100.00
2023-04-09T08:49:52.912Z,100.00
2023-04-09T08:54:03.913Z,100.00
2023-04-09T08:58:10.717Z,100.00
2023-04-09T09:02:12.670Z,100.00
2023-04-09T09:06:21.902Z,100.00
2023-04-09T09:10:37.415Z,100.00
2023-04-09T09:14:38.871Z,100.00
2023-04-09T09:18:42.775Z,100.00
2023-04-09T09:22:54.863Z,97.74
2023-04-09T09:26:59.549Z,96.58
2023-04-09T09:31:11.089Z,93.47
2023-04-09T09:35:12.712Z,89.60
2023-04-09T09:39:17.243Z,94.31
2023-04-09T09:43:18.697Z,93.97
2023-04-09T09:47:21.823Z,88.26
2023-04-09T09:51:27.742Z,85.55
2023-04-09T09:55:32.275Z,86.44
2023-04-09T09:59:39.556Z,80.83
2023-04-09T10:03:44.191Z,88.90
2023-04-09T10:07:46.507Z,82.77
2023-04-09T10:11:48.832Z,77.93
2023-04-09T10:15:52.043Z,76.44
2023-04-09T10:20:11.611Z,74.83
2023-04-09T10:24:13.716Z,73.25
2023-04-09T10:28:17.547Z,71.38
2023-04-09T10:32:26.486Z,73.09
2023-04-09T10:36:31.537Z,72.52
2023-04-09T10:40:33.064Z,71.74
2023-04-09T10:44:38.059Z,72.45
2023-04-09T10:48:39.512Z,73.48
2023-04-09T10:52:42.344Z,66.43
2023-04-09T10:57:16.444Z,62.74
2023-04-09T11:01:24.264Z,63.53
2023-04-09T11:05:28.384Z,63.67
2023-04-09T11:09:29.799Z,65.63
2023-04-09T11:13:32.502Z,64.64
2023-04-09T11:17:36.969Z,62.79
2023-04-09T11:21:46.136Z,58.03
2023-04-09T11:25:51.690Z,59.78
2023-04-09T11:29:56.508Z,59.25
2023-04-09T11:33:57.948Z,60.88
2023-04-09T11:37:59.471Z,58.97
2023-04-09T11:42:01.853Z,59.72
2023-04-09T11:46:04.614Z,61.04
2023-04-09T11:50:07.955Z,58.53
2023-04-09T11:54:11.629Z,60.26
2023-04-09T11:58:13.286Z,61.42
2023-04-09T12:02:19.227Z,54.68
2023-04-09T12:06:25.100Z,53.89
2023-04-09T12:10:32.188Z,53.61
2023-04-09T12:14:34.927Z,53.22
2023-04-09T12:18:38.155Z,49.47
2023-04-09T12:22:41.248Z,49.01
2023-04-09T12:26:43.550Z,49.41
2023-04-09T12:30:45.350Z,49.01
2023-04-09T12:34:47.401Z,48.05
2023-04-09T12:38:48.871Z,48.27
2023-04-09T12:42:50.372Z,49.08
2023-04-09T12:46:51.898Z,46.14
2023-04-09T12:50:53.489Z,45.74
2023-04-09T12:54:55.072Z,43.59
2023-04-09T12:58:56.793Z,43.74
2023-04-09T13:02:58.410Z,41.38
2023-04-09T13:06:59.946Z,41.26
2023-04-09T13:11:01.623Z,41.09
2023-04-09T13:15:03.874Z,40.15
2023-04-09T13:19:06.807Z,40.25
2023-04-09T13:23:08.292Z,36.82
2023-04-09T13:27:11.193Z,38.64
2023-04-09T13:31:12.857Z,37.22
2023-04-09T13:35:14.544Z,37.98
2023-04-09T13:39:16.104Z,36.65
2023-04-09T13:43:17.635Z,36.90
2023-04-09T13:47:19.445Z,36.88
2023-04-09T13:51:24.074Z,37.08
2023-04-09T13:55:25.789Z,38.10
2023-04-09T13:59:27.307Z,36.81
2023-04-09T14:03:28.793Z,36.37
2023-04-09T14:07:30.802Z,37.28
2023-04-09T14:11:32.347Z,38.80
2023-04-09T14:15:34.899Z,36.86
2023-04-09T14:19:36.342Z,35.20
2023-04-09T14:23:39.490Z,37.21
2023-04-09T14:27:41.111Z,35.86
2023-04-09T14:31:42.806Z,34.34
2023-04-09T14:35:44.511Z,34.64
2023-04-09T14:39:46.008Z,34.19
2023-04-09T14:43:47.477Z,33.40
2023-04-09T14:47:48.991Z,35.25
2023-04-09T14:51:50.560Z,34.42
2023-04-09T14:55:51.978Z,33.67
2023-04-09T14:59:53.402Z,36.80
2023-04-09T15:03:55.233Z,35.14
2023-04-09T15:07:57.238Z,35.98
2023-04-09T15:11:58.695Z,36.68
2023-04-09T15:16:00.459Z,35.89
2023-04-09T15:20:02.046Z,36.64
2023-04-09T15:24:03.741Z,35.28
2023-04-09T15:28:06.364Z,35.29
2023-04-09T15:32:07.890Z,36.65
2023-04-09T15:36:09.484Z,37.26
2023-04-09T15:40:11.516Z,39.14
2023-04-09T15:44:12.941Z,37.35
2023-04-09T15:48:14.535Z,36.64
2023-04-09T15:52:16.088Z,38.22
2023-04-09T15:56:17.532Z,38.26
2023-04-09T16:00:19.049Z,39.24
2023-04-09T16:04:20.683Z,38.48
2023-04-09T16:08:22.098Z,42.03
2023-04-09T16:12:24.753Z,44.90
2023-04-09T16:16:26.258Z,45.71
2023-04-09T16:20:29.289Z,46.97
2023-04-09T16:24:31.622Z,47.60
2023-04-09T16:28:33.166Z,48.11
2023-04-09T16:32:34.670Z,48.92
2023-04-09T16:36:38.736Z,49.61
2023-04-09T16:40:40.477Z,52.73
2023-04-09T16:44:42.093Z,51.03
2023-04-09T16:48:43.574Z,51.01
2023-04-09T16:52:45.062Z,50.05
2023-04-09T16:56:48.384Z,49.59
2023-04-09T17:00:51.874Z,50.96
2023-04-09T17:04:53.945Z,51.47
2023-04-09T17:08:55.430Z,53.12
2023-04-09T17:12:56.849Z,53.07
2023-04-09T17:16:58.339Z,55.41
2023-04-09T17:20:59.934Z,53.44
2023-04-09T17:25:01.895Z,55.21
2023-04-09T17:29:03.423Z,56.13
2023-04-09T17:33:04.934Z,59.01
2023-04-09T17:37:06.462Z,62.19
2023-04-09T17:41:07.885Z,61.85
2023-04-09T17:45:09.848Z,63.93
2023-04-09T17:49:11.865Z,64.15
2023-04-09T17:53:13.406Z,66.69
2023-04-09T17:57:15.416Z,69.33
2023-04-09T18:01:17.029Z,69.77
2023-04-09T18:05:18.613Z,70.20
2023-04-09T18:09:20.343Z,74.64
2023-04-09T18:13:22.929Z,77.51
2023-04-09T18:17:26.208Z,80.15
2023-04-09T18:21:28.535Z,79.60
2023-04-09T18:25:30.240Z,80.44
2023-04-09T18:29:31.930Z,85.23
2023-04-09T18:33:34.122Z,88.80
2023-04-09T18:37:35.626Z,87.97
2023-04-09T18:41:37.123Z,88.45
2023-04-09T18:45:42.012Z,88.27
2023-04-09T18:49:43.532Z,88.68
2023-04-09T18:53:45.219Z,89.64
2023-04-09T18:57:47.203Z,91.81
2023-04-09T19:01:48.796Z,93.13
2023-04-09T19:05:51.314Z,95.36
2023-04-09T19:09:52.794Z,95.26
2023-04-09T19:13:54.242Z,96.48
2023-04-09T19:17:56.827Z,96.17
2023-04-09T19:21:58.634Z,96.80
2023-04-09T19:26:01.118Z,98.37
2023-04-09T19:30:04.705Z,100.00
2023-04-09T19:34:06.389Z,100.00
2023-04-09T19:38:08.193Z,100.00
2023-04-09T19:42:09.841Z,100.00
2023-04-09T19:46:11.463Z,100.00
2023-04-09T19:50:13.354Z,100.00
2023-04-09T19:54:16.530Z,100.00
2023-04-09T19:58:17.991Z,100.00
2023-04-09T20:02:19.831Z,100.00
2023-04-09T20:06:21.902Z,100.00
2023-04-09T20:10:23.427Z,100.00
2023-04-09T20:14:25.053Z,100.00
2023-04-09T20:18:26.653Z,100.00
2023-04-09T20:22:28.974Z,100.00
2023-04-09T20:26:30.978Z,100.00
2023-04-09T20:30:32.583Z,100.00
2023-04-09T20:34:34.046Z,100.00
2023-04-09T20:38:35.577Z,100.00
2023-04-09T20:42:38.428Z,100.00
2023-04-09T20:46:39.912Z,100.00
2023-04-09T20:50:42.062Z,100.00
2023-04-09T20:54:43.511Z,100.00
2023-04-09T20:58:45.083Z,100.00
2023-04-09T21:02:46.664Z,100.00
2023-04-09T21:06:48.266Z,100.00
2023-04-09T21:10:49.665Z,100.00
2023-04-09T21:14:51.094Z,100.00
2023-04-09T21:18:53.089Z,100.00
2023-04-09T21:22:54.864Z,100.00
2023-04-09T21:26:56.814Z,100.00
2023-04-09T21:30:58.451Z,100.00
2023-04-09T21:35:00.025Z,100.00
2023-04-09T21:39:01.580Z,100.00
2023-04-09T21:43:03.174Z,100.00
2023-04-09T21:47:07.529Z,100.00
2023-04-09T21:51:10.548Z,100.00
2023-04-09T21:55:12.017Z,100.00
2023-04-09T21:59:13.440Z,100.00
2023-04-09T22:03:15.864Z,100.00
2023-04-09T22:07:17.435Z,100.00
2023-04-09T22:11:19.204Z,100.00
2023-04-09T22:15:21.878Z,100.00
2023-04-09T22:19:26.073Z,100.00
2023-04-09T22:23:27.573Z,100.00
2023-04-09T22:27:29.028Z,100.00
2023-04-09T22:31:30.469Z,100.00
2023-04-09T22:35:32.113Z,100.00
2023-04-09T22:39:33.615Z,100.00
2023-04-09T22:43:35.071Z,100.00
2023-04-09T22:47:37.204Z,100.00
2023-04-09T22:51:41.383Z,100.00
2023-04-09T22:55:43.264Z,100.00
2023-04-09T22:59:44.763Z,100.00
2023-04-09T23:03:46.429Z,100.00
2023-04-09T23:07:48.150Z,100.00
2023-04-09T23:11:49.624Z,100.00
2023-04-09T23:15:51.137Z,100.00
2023-04-09T23:19:52.691Z,100.00
2023-04-09T23:23:54.259Z,100.00
2023-04-09T23:27:55.882Z,100.00
2023-04-09T23:31:57.347Z,100.00
2023-04-09T23:35:58.798Z,100.00
2023-04-09T23:40:00.345Z,100.00
2023-04-09T23:44:01.893Z,100.00
2023-04-09T23:48:07.281Z,100.00
2023-04-09T23:52:08.783Z,100.00
2023-04-09T23:56:10.210Z,100.00
